createdAt,value
2017-10-18T00:00:14.935Z,56.3
2017-10-18T00:01:16.590Z,55.6
2017-10-18T00:02:18.246Z,55.8
2017-10-18T00:03:19.901Z,58.4
2017-10-18T00:04:21.559Z,55.7
2017-10-18T00:05:23.212Z,53.2
2017-10-18T00:06:24.887Z,61.7
2017-10-18T00:07:26.560Z,58.0
2017-10-18T00:08:28.213Z,54.3
2017-10-18T00:09:29.872Z,61.9
2017-10-18T00:10:31.527Z,58.9
2017-10-18T00:11:33.189Z,57.9
2017-10-18T00:12:34.845Z,63.9
2017-10-18T00:13:36.497Z,75.7
2017-10-18T00:14:38.164Z,64.9
2017-10-18T00:15:39.822Z,59.8
2017-10-18T00:16:41.476Z,58.5
2017-10-18T00:17:43.129Z,57.0
2017-10-18T00:18:44.774Z,55.1
2017-10-18T00:19:46.442Z,57.5
2017-10-18T00:20:48.092Z,76.4
2017-10-18T00:21:49.750Z,69.2
2017-10-18T00:22:51.415Z,62.2
2017-10-18T00:23:53.085Z,113.0
2017-10-18T00:24:54.721Z,69.9
2017-10-18T00:25:56.393Z,69.3
2017-10-18T00:26:58.046Z,75.2
2017-10-18T00:27:59.703Z,62.6
2017-10-18T00:29:01.367Z,76.2
2017-10-18T00:30:03.026Z,73.0
2017-10-18T00:31:04.690Z,91.4
2017-10-18T00:32:06.341Z,73.7
2017-10-18T00:33:08.004Z,67.4
2017-10-18T00:34:09.672Z,69.7
2017-10-18T00:35:11.371Z,77.0
2017-10-18T00:36:13.021Z,79.7
2017-10-18T00:37:14.685Z,65.3
2017-10-18T00:38:16.355Z,54.9
2017-10-18T00:39:18.017Z,59.0
2017-10-18T00:40:19.724Z,70.6
2017-10-18T00:41:21.393Z,81.4
2017-10-18T00:42:23.055Z,86.8
2017-10-18T00:43:24.740Z,102.2
2017-10-18T00:44:26.408Z,76.4
2017-10-18T00:45:28.075Z,61.0
2017-10-18T00:46:29.742Z,106.8
2017-10-18T00:47:31.397Z,113.8
2017-10-18T00:48:33.066Z,49.0
2017-10-18T00:49:34.718Z,55.7
2017-10-18T00:50:36.466Z,71.6
2017-10-18T00:51:38.129Z,55.8
2017-10-18T00:52:39.788Z,60.0
2017-10-18T00:53:41.449Z,69.0
2017-10-18T00:54:43.113Z,73.8
2017-10-18T00:55:44.775Z,62.5
2017-10-18T00:56:46.442Z,66.9
2017-10-18T00:57:48.127Z,66.9
2017-10-18T00:58:49.777Z,68.2
2017-10-18T00:59:51.436Z,73.4
2017-10-18T01:00:53.087Z,67.8
2017-10-18T01:01:54.753Z,82.1
2017-10-18T01:02:56.404Z,80.8
2017-10-18T01:03:58.066Z,85.9
2017-10-18T01:04:59.724Z,88.0
2017-10-18T01:06:01.382Z,114.8
2017-10-18T01:07:03.035Z,87.6
2017-10-18T01:08:04.687Z,86.7
2017-10-18T01:09:06.353Z,73.8
2017-10-18T01:10:08.003Z,77.9
2017-10-18T01:11:09.693Z,70.9
2017-10-18T01:12:11.357Z,64.8
2017-10-18T01:13:13.011Z,64.9
2017-10-18T01:14:14.665Z,71.0
2017-10-18T01:15:16.325Z,75.4
2017-10-18T01:16:17.992Z,61.2
2017-10-18T01:17:19.652Z,68.3
2017-10-18T01:18:21.319Z,84.7
2017-10-18T01:19:22.973Z,96.5
2017-10-18T01:20:24.656Z,73.3
2017-10-18T01:21:26.316Z,75.7
2017-10-18T01:22:27.982Z,76.6
2017-10-18T01:23:29.640Z,79.3
2017-10-18T01:24:31.294Z,77.1
2017-10-18T01:25:32.947Z,77.3
2017-10-18T01:26:34.614Z,74.4
2017-10-18T01:27:36.275Z,71.9
2017-10-18T01:28:37.932Z,99.5
2017-10-18T01:29:39.590Z,75.8
2017-10-18T01:30:41.246Z,85.6
2017-10-18T01:31:42.901Z,73.2
2017-10-18T01:32:44.556Z,64.1
2017-10-18T01:33:46.210Z,55.0
2017-10-18T01:34:47.866Z,62.9
2017-10-18T01:35:49.521Z,75.7
2017-10-18T01:36:51.172Z,66.3
2017-10-18T01:37:52.822Z,65.6
2017-10-18T01:38:54.489Z,65.1
2017-10-18T01:39:56.154Z,56.6
2017-10-18T01:40:57.810Z,63.4
2017-10-18T01:41:59.473Z,63.2
2017-10-18T01:43:01.125Z,79.4
2017-10-18T01:44:02.775Z,70.0
2017-10-18T01:45:04.440Z,61.9
2017-10-18T01:46:06.092Z,76.1
2017-10-18T01:47:07.751Z,67.5
2017-10-18T01:48:09.403Z,61.8
2017-10-18T01:49:11.064Z,66.5
2017-10-18T01:50:12.715Z,80.7
2017-10-18T01:51:14.376Z,71.0
2017-10-18T01:52:16.029Z,78.0
2017-10-18T01:53:17.690Z,93.7
2017-10-18T01:54:19.340Z,104.3
2017-10-18T01:55:21.015Z,78.4
2017-10-18T02:01:38.594Z,66.2
2017-10-18T02:02:40.251Z,68.6
2017-10-18T02:03:41.930Z,74.7
2017-10-18T02:04:43.580Z,87.9
2017-10-18T02:05:45.235Z,95.8
2017-10-18T02:06:46.895Z,133.5
2017-10-18T02:07:48.564Z,92.9
2017-10-18T02:08:50.225Z,102.4
2017-10-18T02:09:51.876Z,105.3
2017-10-18T02:10:53.534Z,84.7
2017-10-18T02:11:55.190Z,143.0
2017-10-18T02:12:56.846Z,91.7
2017-10-18T02:13:58.504Z,87.4
2017-10-18T02:15:00.158Z,78.4
2017-10-18T02:16:01.827Z,84.6
2017-10-18T02:17:03.484Z,115.0
2017-10-18T02:18:05.152Z,120.5
2017-10-18T02:19:06.819Z,117.0
2017-10-18T02:20:08.469Z,81.4
2017-10-18T02:21:10.119Z,70.2
2017-10-18T02:22:11.779Z,101.6
2017-10-18T02:23:13.444Z,95.8
2017-10-18T02:24:15.120Z,103.9
2017-10-18T02:25:16.785Z,69.1
2017-10-18T02:26:18.441Z,106.3
2017-10-18T02:27:20.103Z,102.7
2017-10-18T02:28:21.767Z,91.3
2017-10-18T02:29:23.428Z,114.3
2017-10-18T02:30:25.095Z,84.1
2017-10-18T02:31:26.748Z,81.6
2017-10-18T02:32:28.406Z,80.9
2017-10-18T02:33:30.077Z,79.3
2017-10-18T02:34:31.733Z,85.7
2017-10-18T02:35:33.399Z,97.5
2017-10-18T02:36:35.073Z,121.3
2017-10-18T02:37:36.738Z,89.3
2017-10-18T02:38:38.393Z,98.4
2017-10-18T02:39:40.048Z,87.4
2017-10-18T02:40:41.699Z,130.6
2017-10-18T02:41:43.371Z,119.8
2017-10-18T02:42:45.028Z,142.6
2017-10-18T02:43:46.689Z,136.0
2017-10-18T02:44:48.343Z,79.6
2017-10-18T02:45:49.997Z,123.4
2017-10-18T02:46:51.717Z,102.9
2017-10-18T02:47:53.370Z,84.7
2017-10-18T02:48:55.033Z,106.9
2017-10-18T02:49:56.678Z,142.7
2017-10-18T02:50:58.336Z,81.8
2017-10-18T02:51:59.996Z,71.6
2017-10-18T02:53:01.649Z,116.1
2017-10-18T02:54:03.327Z,82.3
2017-10-18T02:55:04.978Z,84.5
2017-10-18T02:56:06.646Z,108.8
2017-10-18T02:57:08.310Z,97.1
2017-10-18T02:58:09.961Z,89.2
2017-10-18T02:59:11.616Z,91.6
2017-10-18T03:00:13.271Z,92.5
2017-10-18T03:01:14.927Z,88.6
2017-10-18T03:02:16.591Z,61.7
2017-10-18T03:03:18.248Z,64.5
2017-10-18T03:04:19.907Z,54.4
2017-10-18T03:05:21.563Z,88.9
2017-10-18T03:06:23.225Z,78.0
2017-10-18T03:07:24.908Z,69.3
2017-10-18T03:08:26.565Z,63.2
2017-10-18T03:09:28.228Z,83.9
2017-10-18T03:10:29.881Z,75.9
2017-10-18T03:11:31.537Z,67.6
2017-10-18T03:12:33.194Z,73.0
2017-10-18T03:13:34.851Z,77.6
2017-10-18T03:14:36.501Z,66.1
2017-10-18T03:15:38.175Z,74.7
2017-10-18T03:16:39.893Z,63.6
2017-10-18T03:17:41.549Z,61.9
2017-10-18T03:18:43.206Z,75.5
2017-10-18T03:19:44.856Z,60.7
2017-10-18T03:20:46.514Z,53.0
2017-10-18T03:21:48.167Z,59.8
2017-10-18T03:22:49.826Z,65.6
2017-10-18T03:23:51.481Z,59.5
2017-10-18T03:24:53.141Z,61.9
2017-10-18T03:25:54.800Z,75.7
2017-10-18T03:26:56.488Z,93.5
2017-10-18T03:27:58.119Z,67.5
2017-10-18T03:28:59.781Z,82.9
2017-10-18T03:30:01.431Z,79.6
2017-10-18T03:31:03.131Z,60.9
2017-10-18T03:32:04.793Z,81.4
2017-10-18T03:33:06.442Z,67.1
2017-10-18T03:34:08.095Z,63.8
2017-10-18T03:35:09.747Z,72.2
2017-10-18T03:36:11.400Z,60.9
2017-10-18T03:37:13.052Z,64.9
2017-10-18T03:38:14.700Z,98.8
2017-10-18T03:39:16.368Z,69.0
2017-10-18T03:40:18.023Z,89.0
2017-10-18T03:41:19.690Z,83.7
2017-10-18T03:42:22.579Z,55.4
2017-10-18T03:43:24.266Z,68.5
2017-10-18T03:44:25.921Z,57.1
2017-10-18T03:45:27.568Z,67.1
2017-10-18T03:46:29.225Z,53.1
2017-10-18T03:47:30.878Z,51.5
2017-10-18T03:48:32.532Z,52.8
2017-10-18T03:49:34.198Z,47.4
2017-10-18T03:50:35.847Z,54.6
2017-10-18T03:51:37.502Z,52.2
2017-10-18T03:52:39.228Z,54.7
2017-10-18T03:53:40.872Z,74.8
2017-10-18T03:54:42.638Z,76.0
2017-10-18T03:55:44.377Z,61.5
2017-10-18T03:56:46.039Z,52.1
2017-10-18T03:57:47.694Z,57.4
2017-10-18T03:58:49.358Z,54.5
2017-10-18T03:59:51.015Z,51.3
2017-10-18T04:00:52.677Z,53.7
2017-10-18T04:01:54.336Z,55.9
2017-10-18T04:02:55.994Z,59.5
2017-10-18T04:03:57.644Z,55.5
2017-10-18T04:04:59.294Z,51.3
2017-10-18T04:06:00.988Z,56.0
2017-10-18T04:07:02.636Z,57.0
2017-10-18T04:08:04.301Z,58.8
2017-10-18T04:09:06.015Z,55.5
2017-10-18T04:10:07.668Z,55.1
2017-10-18T04:11:09.328Z,60.4
2017-10-18T04:12:10.981Z,65.0
2017-10-18T04:13:12.645Z,59.5
2017-10-18T04:14:14.303Z,47.6
2017-10-18T04:15:15.960Z,58.3
2017-10-18T04:16:17.626Z,60.1
2017-10-18T04:17:19.296Z,51.4
2017-10-18T04:18:20.957Z,68.3
2017-10-18T04:19:22.614Z,69.2
2017-10-18T04:20:24.284Z,62.4
2017-10-18T04:21:25.946Z,63.2
2017-10-18T04:22:27.592Z,60.0
2017-10-18T04:23:29.242Z,59.0
2017-10-18T04:24:30.897Z,56.2
2017-10-18T04:25:32.558Z,64.0
2017-10-18T04:26:34.211Z,56.6
2017-10-18T04:27:35.868Z,59.8
2017-10-18T04:28:37.528Z,79.2
2017-10-18T04:29:39.187Z,58.0
2017-10-18T04:30:40.940Z,56.8
2017-10-18T04:31:42.594Z,60.4
2017-10-18T04:32:44.308Z,71.1
2017-10-18T04:33:45.957Z,54.4
2017-10-18T04:34:47.610Z,57.8
2017-10-18T04:35:49.267Z,58.1
2017-10-18T04:36:50.939Z,59.8
2017-10-18T04:37:52.590Z,55.4
2017-10-18T04:38:54.242Z,52.2
2017-10-18T04:39:55.897Z,51.4
2017-10-18T04:40:57.559Z,49.7
2017-10-18T04:41:59.271Z,52.9
2017-10-18T04:43:00.924Z,51.1
2017-10-18T04:44:02.577Z,55.2
2017-10-18T04:45:04.268Z,49.5
2017-10-18T04:46:05.918Z,58.2
2017-10-18T04:47:07.588Z,53.6
2017-10-18T04:48:09.247Z,58.5
2017-10-18T04:49:10.895Z,51.5
2017-10-18T04:50:12.554Z,60.4
2017-10-18T04:51:14.218Z,53.5
2017-10-18T04:52:15.875Z,56.4
2017-10-18T04:53:17.530Z,60.0
2017-10-18T04:54:19.182Z,70.2
2017-10-18T04:55:20.843Z,63.9
2017-10-18T04:56:22.501Z,78.2
2017-10-18T04:57:24.179Z,68.5
2017-10-18T04:58:25.839Z,55.6
2017-10-18T04:59:27.489Z,64.8
2017-10-18T05:00:29.146Z,58.1
2017-10-18T05:01:30.808Z,64.5
2017-10-18T05:02:32.459Z,64.2
2017-10-18T05:03:34.121Z,60.5
2017-10-18T05:04:35.781Z,107.9
2017-10-18T05:05:37.451Z,68.3
2017-10-18T05:06:39.132Z,60.8
2017-10-18T05:07:45.448Z,56.0
2017-10-18T05:08:46.868Z,50.5
2017-10-18T05:09:48.812Z,65.3
2017-10-18T05:10:50.509Z,80.4
2017-10-18T05:11:52.332Z,57.4
2017-10-18T05:12:53.987Z,55.3
2017-10-18T05:13:55.655Z,54.9
2017-10-18T05:14:57.308Z,52.7
2017-10-18T05:15:58.973Z,68.0
2017-10-18T05:17:00.630Z,58.3
2017-10-18T05:18:02.283Z,59.9
2017-10-18T05:19:03.940Z,63.5
2017-10-18T05:20:05.609Z,62.3
2017-10-18T05:21:07.257Z,50.0
2017-10-18T05:22:08.923Z,55.1
2017-10-18T05:23:10.589Z,53.6
2017-10-18T05:24:12.318Z,56.4
2017-10-18T05:25:13.965Z,55.7
2017-10-18T05:26:15.629Z,56.3
2017-10-18T05:27:17.288Z,54.5
2017-10-18T05:28:18.948Z,69.7
2017-10-18T05:29:20.643Z,67.8
2017-10-18T05:30:22.300Z,48.9
2017-10-18T05:31:23.951Z,52.4
2017-10-18T05:32:25.600Z,52.1
2017-10-18T05:33:27.252Z,55.4
2017-10-18T05:34:28.907Z,59.9
2017-10-18T05:35:30.558Z,60.5
2017-10-18T05:36:32.229Z,59.0
2017-10-18T05:37:33.910Z,58.0
2017-10-18T05:38:35.555Z,61.6
2017-10-18T05:39:37.221Z,55.4
2017-10-18T05:40:38.870Z,53.3
2017-10-18T05:41:40.546Z,52.7
2017-10-18T05:42:42.202Z,57.8
2017-10-18T05:43:43.866Z,71.4
2017-10-18T05:44:45.545Z,71.3
2017-10-18T05:45:47.242Z,56.2
2017-10-18T05:46:49.042Z,49.3
2017-10-18T05:47:50.700Z,52.2
2017-10-18T05:48:52.354Z,58.3
2017-10-18T05:49:54.010Z,69.2
2017-10-18T05:50:55.675Z,63.5
2017-10-18T05:51:57.343Z,65.1
2017-10-18T05:52:59.009Z,61.5
2017-10-18T05:54:00.670Z,57.5
2017-10-18T05:55:02.335Z,57.5
2017-10-18T06:01:12.738Z,44.2
2017-10-18T06:02:14.423Z,47.3
2017-10-18T06:03:16.068Z,50.7
2017-10-18T06:04:17.752Z,55.8
2017-10-18T06:05:19.403Z,68.9
2017-10-18T06:06:21.087Z,59.7
2017-10-18T06:07:22.747Z,64.9
2017-10-18T06:08:24.423Z,53.1
2017-10-18T06:09:26.089Z,110.6
2017-10-18T06:10:27.749Z,72.4
2017-10-18T06:11:29.403Z,57.2
2017-10-18T06:12:31.063Z,53.6
2017-10-18T06:13:32.741Z,53.7
2017-10-18T06:14:34.408Z,60.2
2017-10-18T06:15:36.106Z,65.6
2017-10-18T06:16:37.752Z,83.5
2017-10-18T06:17:39.408Z,100.1
2017-10-18T06:18:41.065Z,68.3
2017-10-18T06:19:42.726Z,81.7
2017-10-18T06:20:44.392Z,52.0
2017-10-18T06:21:46.057Z,51.4
2017-10-18T06:22:47.724Z,56.6
2017-10-18T06:23:49.383Z,66.1
2017-10-18T06:24:51.040Z,54.7
2017-10-18T06:25:52.702Z,71.7
2017-10-18T06:26:54.360Z,78.3
2017-10-18T06:27:56.038Z,86.4
2017-10-18T06:28:57.706Z,74.3
2017-10-18T06:29:59.359Z,60.2
2017-10-18T06:31:01.016Z,50.3
2017-10-18T06:32:02.672Z,56.6
2017-10-18T06:33:04.332Z,54.9
2017-10-18T06:34:06.014Z,54.1
2017-10-18T06:35:07.665Z,76.3
2017-10-18T06:36:09.321Z,82.9
2017-10-18T06:37:10.987Z,70.2
2017-10-18T06:38:12.657Z,62.1
2017-10-18T06:39:14.403Z,61.9
2017-10-18T06:40:16.110Z,51.4
2017-10-18T06:41:17.765Z,68.2
2017-10-18T06:42:19.490Z,81.0
2017-10-18T06:43:21.157Z,64.8
2017-10-18T06:44:22.820Z,72.9
2017-10-18T06:45:24.518Z,63.4
2017-10-18T06:46:26.173Z,54.6
2017-10-18T06:47:27.851Z,56.0
2017-10-18T06:48:29.520Z,47.3
2017-10-18T06:49:31.181Z,55.4
2017-10-18T06:50:32.856Z,89.5
2017-10-18T06:51:34.518Z,96.5
2017-10-18T06:52:36.186Z,68.9
2017-10-18T06:53:37.847Z,71.0
2017-10-18T06:54:39.521Z,58.8
2017-10-18T06:55:41.188Z,66.8
2017-10-18T06:56:42.877Z,72.0
2017-10-18T06:57:44.530Z,75.8
2017-10-18T06:58:46.194Z,50.1
2017-10-18T06:59:47.860Z,91.2
2017-10-18T07:00:49.541Z,91.2
2017-10-18T07:01:51.198Z,98.2
2017-10-18T07:02:52.863Z,63.1
2017-10-18T07:03:54.519Z,72.9
2017-10-18T07:04:56.246Z,66.2
2017-10-18T07:05:57.911Z,99.6
2017-10-18T07:06:59.580Z,63.2
2017-10-18T07:08:01.266Z,60.7
2017-10-18T07:09:02.931Z,72.5
2017-10-18T07:10:04.596Z,63.7
2017-10-18T07:11:06.287Z,54.7
2017-10-18T07:12:08.019Z,51.2
2017-10-18T07:13:09.687Z,53.7
2017-10-18T07:14:11.341Z,56.7
2017-10-18T07:15:12.999Z,53.7
2017-10-18T07:16:14.788Z,52.3
2017-10-18T07:17:16.431Z,49.5
2017-10-18T07:18:18.084Z,58.5
2017-10-18T07:19:19.746Z,48.8
2017-10-18T07:20:21.424Z,54.1
2017-10-18T07:21:23.074Z,52.1
2017-10-18T07:22:24.774Z,57.2
2017-10-18T07:23:26.441Z,79.3
2017-10-18T07:24:28.095Z,51.2
2017-10-18T07:25:29.758Z,53.0
2017-10-18T07:26:31.430Z,46.2
2017-10-18T07:27:33.088Z,44.3
2017-10-18T07:28:34.756Z,42.9
2017-10-18T07:29:36.397Z,49.4
2017-10-18T07:30:38.057Z,42.4
2017-10-18T07:31:39.712Z,57.7
2017-10-18T07:32:41.370Z,48.6
2017-10-18T07:33:43.034Z,36.7
2017-10-18T07:34:44.695Z,37.7
2017-10-18T07:35:46.352Z,36.1
2017-10-18T07:36:48.015Z,35.8
2017-10-18T07:37:49.675Z,34.8
2017-10-18T07:38:51.340Z,37.5
2017-10-18T07:39:53.011Z,37.2
2017-10-18T07:40:54.674Z,43.1
2017-10-18T07:41:56.336Z,38.4
2017-10-18T07:42:58.009Z,40.5
2017-10-18T07:43:59.668Z,35.5
2017-10-18T07:45:01.333Z,47.3
2017-10-18T07:46:02.991Z,49.7
2017-10-18T07:47:05.248Z,54.2
2017-10-18T07:48:06.758Z,48.4
2017-10-18T07:49:08.445Z,54.1
2017-10-18T07:50:10.109Z,56.2
2017-10-18T07:51:11.822Z,43.9
2017-10-18T07:52:13.488Z,43.7
2017-10-18T07:53:15.153Z,40.4
2017-10-18T07:54:16.814Z,38.7
2017-10-18T07:55:18.483Z,37.4
2017-10-18T07:56:20.143Z,35.9
2017-10-18T07:57:21.802Z,46.7
2017-10-18T07:58:23.476Z,42.2
2017-10-18T07:59:25.138Z,37.7
2017-10-18T08:00:26.803Z,31.5
2017-10-18T08:01:28.475Z,31.9
2017-10-18T08:02:30.147Z,30.2
2017-10-18T08:03:31.822Z,31.6
2017-10-18T08:04:33.489Z,29.6
2017-10-18T08:05:35.154Z,32.8
2017-10-18T08:06:36.820Z,32.7
2017-10-18T08:07:38.496Z,28.0
2017-10-18T08:08:40.152Z,31.6
2017-10-18T08:09:41.817Z,35.2
2017-10-18T08:10:43.481Z,31.4
2017-10-18T08:11:45.221Z,30.5
2017-10-18T08:12:46.883Z,27.3
2017-10-18T08:13:48.546Z,26.8
2017-10-18T08:14:50.212Z,24.7
2017-10-18T08:15:51.913Z,24.5
2017-10-18T08:16:53.568Z,22.6
2017-10-18T08:17:55.315Z,23.4
2017-10-18T08:18:56.974Z,25.2
2017-10-18T08:19:58.628Z,23.8
2017-10-18T08:21:00.293Z,22.4
2017-10-18T08:22:02.034Z,22.8
2017-10-18T08:23:03.689Z,27.2
2017-10-18T08:24:05.354Z,23.1
2017-10-18T08:25:07.028Z,21.6
2017-10-18T08:26:08.703Z,23.5
2017-10-18T08:27:10.379Z,34.1
2017-10-18T08:28:12.060Z,26.6
2017-10-18T08:29:13.720Z,29.8
2017-10-18T08:30:15.393Z,27.6
2017-10-18T08:31:17.081Z,29.7
2017-10-18T08:32:18.749Z,25.2
2017-10-18T08:33:20.417Z,24.8
2017-10-18T08:34:22.081Z,27.2
2017-10-18T08:35:23.747Z,23.3
2017-10-18T08:36:25.417Z,26.5
2017-10-18T08:37:27.085Z,25.5
2017-10-18T08:38:28.768Z,31.9
2017-10-18T08:39:30.448Z,25.1
2017-10-18T08:40:32.111Z,23.7
2017-10-18T08:41:33.792Z,22.3
2017-10-18T08:42:35.469Z,20.1
2017-10-18T08:43:37.132Z,18.9
2017-10-18T08:44:38.828Z,18.8
2017-10-18T08:45:40.489Z,16.8
2017-10-18T08:46:42.204Z,17.4
2017-10-18T08:47:43.866Z,17.9
2017-10-18T08:48:45.526Z,17.3
2017-10-18T08:49:47.185Z,16.3
2017-10-18T08:50:48.865Z,17.6
2017-10-18T08:51:50.589Z,16.9
2017-10-18T08:52:52.308Z,21.5
2017-10-18T08:53:53.973Z,17.6
2017-10-18T08:54:55.649Z,18.8
2017-10-18T08:55:57.326Z,18.6
2017-10-18T08:56:58.995Z,21.4
2017-10-18T08:58:00.652Z,19.0
2017-10-18T08:59:02.320Z,19.7
2017-10-18T09:00:03.993Z,17.5
2017-10-18T09:01:05.681Z,19.7
2017-10-18T09:02:07.374Z,20.0
2017-10-18T09:03:09.093Z,19.7
2017-10-18T09:04:10.758Z,19.7
2017-10-18T09:05:12.433Z,18.3
2017-10-18T09:06:14.108Z,15.2
2017-10-18T09:07:15.779Z,15.0
2017-10-18T09:08:17.466Z,17.5
2017-10-18T09:09:19.164Z,15.9
2017-10-18T09:10:20.827Z,18.3
2017-10-18T09:11:22.509Z,17.0
2017-10-18T09:12:24.198Z,19.1
2017-10-18T09:13:25.881Z,17.1
2017-10-18T09:14:27.554Z,16.9
2017-10-18T09:15:29.260Z,15.4
2017-10-18T09:16:30.924Z,14.5
2017-10-18T09:17:32.589Z,15.1
2017-10-18T09:18:34.268Z,15.0
2017-10-18T09:19:35.943Z,15.3
2017-10-18T09:20:37.604Z,14.6
2017-10-18T09:21:39.271Z,16.5
2017-10-18T09:22:40.947Z,15.1
2017-10-18T09:23:42.612Z,15.7
2017-10-18T09:24:44.279Z,17.8
2017-10-18T09:25:45.944Z,15.6
2017-10-18T09:26:47.608Z,14.4
2017-10-18T09:27:49.292Z,15.3
2017-10-18T09:28:50.971Z,17.5
2017-10-18T09:29:52.646Z,16.7
2017-10-18T09:30:54.331Z,15.9
2017-10-18T09:31:56.059Z,16.5
2017-10-18T09:32:57.747Z,17.5
2017-10-18T09:33:59.432Z,18.2
2017-10-18T09:35:01.114Z,16.0
2017-10-18T09:36:02.794Z,16.5
2017-10-18T09:37:04.477Z,14.2
2017-10-18T09:38:06.138Z,13.7
2017-10-18T09:39:07.811Z,13.6
2017-10-18T09:40:09.487Z,13.2
2017-10-18T09:41:11.141Z,15.6
2017-10-18T09:42:12.821Z,15.6
2017-10-18T09:43:14.625Z,14.5
2017-10-18T09:44:16.301Z,14.0
2017-10-18T09:45:17.976Z,14.7
2017-10-18T09:46:19.643Z,13.7
2017-10-18T09:47:21.346Z,13.3
2017-10-18T09:48:23.037Z,12.8
2017-10-18T09:49:24.728Z,13.7
2017-10-18T09:50:26.397Z,13.3
2017-10-18T09:51:28.066Z,13.0
2017-10-18T09:52:29.739Z,12.7
2017-10-18T09:53:31.479Z,17.3
2017-10-18T09:54:33.255Z,17.5
2017-10-18T09:55:34.926Z,17.0
2017-10-18T10:02:01.993Z,15.6
2017-10-18T10:03:03.699Z,17.5
2017-10-18T10:04:05.362Z,19.2
2017-10-18T10:05:07.053Z,18.9
2017-10-18T10:06:08.759Z,19.3
2017-10-18T10:07:10.467Z,17.7
2017-10-18T10:08:12.134Z,17.8
2017-10-18T10:09:13.804Z,17.8
2017-10-18T10:10:15.467Z,16.2
2017-10-18T10:11:17.260Z,18.1
2017-10-18T10:12:18.906Z,17.1
2017-10-18T10:13:20.579Z,16.7
2017-10-18T10:14:22.255Z,16.9
2017-10-18T10:15:23.935Z,20.0
2017-10-18T10:16:25.670Z,19.6
2017-10-18T10:17:27.330Z,19.4
2017-10-18T10:18:29.004Z,18.0
2017-10-18T10:19:30.681Z,19.4
2017-10-18T10:20:32.353Z,20.5
2017-10-18T10:21:34.020Z,22.5
2017-10-18T10:22:35.686Z,20.2
2017-10-18T10:23:37.389Z,16.4
2017-10-18T10:24:39.045Z,15.8
2017-10-18T10:25:40.711Z,14.6
2017-10-18T10:26:42.377Z,16.0
2017-10-18T10:27:44.085Z,16.0
2017-10-18T10:28:45.844Z,16.4
2017-10-18T10:29:47.609Z,13.4
2017-10-18T10:30:49.301Z,14.9
2017-10-18T10:31:51.007Z,13.9
2017-10-18T10:32:52.698Z,13.2
2017-10-18T10:33:54.365Z,13.8
2017-10-18T10:34:56.099Z,13.5
2017-10-18T10:35:57.801Z,15.0
2017-10-18T10:36:59.498Z,13.0
2017-10-18T10:38:01.169Z,13.6
2017-10-18T10:39:02.854Z,14.8
2017-10-18T10:40:04.522Z,16.0
2017-10-18T10:41:06.205Z,16.5
2017-10-18T10:42:07.874Z,17.0
2017-10-18T10:43:09.548Z,17.1
2017-10-18T10:44:11.266Z,18.1
2017-10-18T10:45:12.952Z,17.8
2017-10-18T10:46:14.613Z,17.3
2017-10-18T10:47:16.286Z,16.1
2017-10-18T10:48:17.951Z,18.6
2017-10-18T10:49:19.631Z,17.4
2017-10-18T10:50:21.335Z,19.7
2017-10-18T10:51:23.006Z,17.3
2017-10-18T10:52:24.802Z,18.2
2017-10-18T10:53:26.477Z,18.4
2017-10-18T10:54:28.188Z,17.4
2017-10-18T10:55:29.872Z,15.3
2017-10-18T10:56:31.556Z,18.1
2017-10-18T10:57:33.223Z,16.7
2017-10-18T10:58:34.899Z,18.0
2017-10-18T10:59:36.577Z,17.5
2017-10-18T11:00:38.256Z,18.1
2017-10-18T11:01:39.920Z,17.1
2017-10-18T11:02:41.589Z,18.1
2017-10-18T11:03:43.345Z,17.0
2017-10-18T11:04:45.025Z,17.6
2017-10-18T11:05:46.746Z,16.9
2017-10-18T11:06:48.420Z,16.8
2017-10-18T11:07:50.265Z,16.1
2017-10-18T11:08:52.103Z,16.6
2017-10-18T11:09:53.792Z,17.8
2017-10-18T11:10:55.475Z,16.2
2017-10-18T11:11:57.135Z,16.6
2017-10-18T11:13:00.061Z,16.6
2017-10-18T11:14:01.585Z,17.6
2017-10-18T11:15:03.281Z,18.1
2017-10-18T11:16:05.748Z,17.7
2017-10-18T11:17:07.423Z,17.4
2017-10-18T11:18:09.105Z,17.7
2017-10-18T11:19:10.774Z,16.6
2017-10-18T11:20:12.451Z,18.0
2017-10-18T11:21:15.447Z,17.8
2017-10-18T11:22:18.401Z,17.0
2017-10-18T11:23:20.078Z,20.3
2017-10-18T11:24:21.852Z,22.2
2017-10-18T11:25:23.613Z,22.5
2017-10-18T11:26:25.318Z,20.4
2017-10-18T11:27:27.070Z,19.9
2017-10-18T11:28:28.856Z,19.5
2017-10-18T11:29:30.610Z,20.5
2017-10-18T11:30:33.207Z,19.3
2017-10-18T11:31:34.804Z,20.7
2017-10-18T11:32:37.930Z,21.4
2017-10-18T11:33:39.703Z,22.0
2017-10-18T11:34:41.782Z,22.0
2017-10-18T11:35:43.403Z,22.3
2017-10-18T11:36:45.301Z,21.1
2017-10-18T11:37:47.081Z,20.3
2017-10-18T11:38:48.791Z,19.7
2017-10-18T11:39:50.506Z,18.9
2017-10-18T11:40:52.190Z,18.5
2017-10-18T11:41:53.885Z,19.7
2017-10-18T11:42:55.607Z,19.4
2017-10-18T11:43:57.287Z,18.4
2017-10-18T11:44:58.987Z,18.8
2017-10-18T11:46:00.847Z,18.1
2017-10-18T11:47:02.552Z,19.0
2017-10-18T11:48:04.283Z,19.9
2017-10-18T11:49:05.990Z,18.7
2017-10-18T11:50:07.685Z,20.4
2017-10-18T11:51:09.400Z,18.6
2017-10-18T11:52:11.092Z,20.1
2017-10-18T11:53:12.781Z,17.7
2017-10-18T11:54:14.473Z,18.6
2017-10-18T11:55:16.170Z,17.5
2017-10-18T11:56:17.863Z,19.2
2017-10-18T11:57:19.622Z,20.3
2017-10-18T11:58:21.326Z,19.7
2017-10-18T11:59:23.166Z,19.5
2017-10-18T12:00:24.976Z,18.0
2017-10-18T12:01:26.683Z,18.9
2017-10-18T12:02:28.598Z,15.7
2017-10-18T12:03:30.290Z,15.6
2017-10-18T12:04:32.037Z,14.5
2017-10-18T12:05:33.718Z,14.9
2017-10-18T12:06:35.408Z,13.8
2017-10-18T12:07:37.108Z,14.0
2017-10-18T12:08:38.823Z,12.3
2017-10-18T12:09:40.517Z,12.3
2017-10-18T12:10:42.219Z,11.6
2017-10-18T12:11:43.917Z,12.2
2017-10-18T12:12:45.664Z,11.0
2017-10-18T12:13:47.363Z,11.4
2017-10-18T12:14:49.088Z,11.0
2017-10-18T12:15:50.830Z,11.2
2017-10-18T12:16:52.561Z,12.3
2017-10-18T12:17:54.271Z,11.0
2017-10-18T12:18:55.957Z,11.3
2017-10-18T12:19:57.822Z,10.4
2017-10-18T12:20:59.533Z,9.6
2017-10-18T12:22:01.235Z,9.0
2017-10-18T12:23:02.941Z,11.2
2017-10-18T12:24:04.679Z,10.1
2017-10-18T12:25:06.450Z,9.3
2017-10-18T12:26:08.303Z,9.9
2017-10-18T12:27:10.386Z,9.6
2017-10-18T12:28:12.143Z,9.3
2017-10-18T12:29:13.845Z,9.3
2017-10-18T12:30:15.658Z,9.5
2017-10-18T12:31:17.455Z,10.0
2017-10-18T12:32:19.161Z,9.3
2017-10-18T12:33:20.859Z,10.1
2017-10-18T12:34:22.547Z,9.6
2017-10-18T12:35:24.272Z,9.5
2017-10-18T12:36:26.025Z,9.4
2017-10-18T12:37:27.759Z,10.0
2017-10-18T12:38:29.476Z,9.9
2017-10-18T12:39:31.207Z,10.2
2017-10-18T12:40:32.902Z,9.7
2017-10-18T12:41:34.601Z,9.0
2017-10-18T12:42:36.362Z,9.5
2017-10-18T12:43:38.075Z,9.7
2017-10-18T12:44:39.776Z,10.1
2017-10-18T12:45:41.524Z,9.7
2017-10-18T12:46:43.249Z,9.4
2017-10-18T12:47:45.072Z,8.8
2017-10-18T12:48:46.802Z,9.1
2017-10-18T12:49:48.619Z,7.4
2017-10-18T12:50:50.353Z,6.8
2017-10-18T12:51:52.202Z,6.4
2017-10-18T12:52:54.095Z,8.1
2017-10-18T12:53:55.838Z,6.7
2017-10-18T12:54:57.609Z,6.1
2017-10-18T12:55:59.490Z,7.1
2017-10-18T12:57:01.238Z,7.0
2017-10-18T12:58:03.095Z,7.5
2017-10-18T12:59:04.929Z,7.2
2017-10-18T13:00:06.668Z,5.4
2017-10-18T13:01:08.474Z,5.0
2017-10-18T13:02:10.374Z,5.0
2017-10-18T13:03:12.201Z,4.6
2017-10-18T13:04:14.065Z,5.1
2017-10-18T13:05:16.115Z,5.0
2017-10-18T13:06:17.950Z,5.2
2017-10-18T13:07:19.795Z,5.5
2017-10-18T13:08:21.694Z,5.3
2017-10-18T13:09:23.645Z,5.5
2017-10-18T13:10:25.537Z,5.0
2017-10-18T13:11:27.515Z,5.0
2017-10-18T13:12:29.516Z,5.3
2017-10-18T13:13:31.425Z,5.0
2017-10-18T13:14:33.180Z,5.3
2017-10-18T13:15:34.992Z,4.5
2017-10-18T13:16:36.818Z,4.7
2017-10-18T13:17:38.587Z,4.8
2017-10-18T13:18:40.392Z,4.7
2017-10-18T13:19:42.216Z,4.9
2017-10-18T13:20:43.993Z,4.7
2017-10-18T13:21:45.718Z,5.1
2017-10-18T13:22:47.489Z,5.2
2017-10-18T13:23:49.270Z,4.6
2017-10-18T13:24:50.997Z,4.7
2017-10-18T13:25:52.738Z,5.0
2017-10-18T13:26:54.448Z,5.1
2017-10-18T13:27:56.183Z,4.6
2017-10-18T13:28:57.899Z,4.9
2017-10-18T13:29:59.627Z,4.8
2017-10-18T13:31:01.434Z,5.2
2017-10-18T13:32:03.234Z,5.3
2017-10-18T13:33:04.982Z,5.5
2017-10-18T13:34:06.762Z,5.0
2017-10-18T13:35:08.532Z,7.9
2017-10-18T13:36:10.323Z,8.1
2017-10-18T13:37:12.113Z,13.5
2017-10-18T13:38:13.900Z,24.5
2017-10-18T13:39:15.745Z,20.2
2017-10-18T13:40:17.571Z,20.3
2017-10-18T13:41:19.312Z,20.7
2017-10-18T13:42:21.138Z,25.8
2017-10-18T13:43:22.905Z,15.5
2017-10-18T13:44:24.669Z,12.2
2017-10-18T13:45:26.408Z,12.5
2017-10-18T13:46:28.143Z,8.1
2017-10-18T13:47:29.879Z,6.6
2017-10-18T13:48:31.627Z,5.9
2017-10-18T13:49:33.408Z,5.9
2017-10-18T13:50:35.134Z,6.0
2017-10-18T13:51:36.930Z,6.0
2017-10-18T13:52:38.808Z,5.3
2017-10-18T13:53:40.577Z,4.9
2017-10-18T13:54:42.392Z,4.8
2017-10-18T13:55:44.219Z,4.8
2017-10-18T14:01:37.732Z,8.1
2017-10-18T14:02:39.399Z,7.6
2017-10-18T14:03:41.079Z,5.8